Atlas, Illinois
Current Conditions -  °F | °C
As of 4:55 PM on Friday 31 Oct 2014 (Local Time) from KPPQ Reporting Station
Clear Clear  
Wind Chill:   Ceiling: Unl
Heat Index:   Visibility: 10mi
Dew Point: -6°   Wind: 15mph
Humidity: 40%   Direction: 330°NNW
Pressure: 30.35"   Gusts: 24mph
Location:  39.5365°N, 91.0118°W
Report Text: KPPQ 312155Z AUTO 33013G21KT 10SM CLR 07/M06 A3035 RMK AO2 T00651062
Loading
Personal Weather Stations






























Interactive Weather Map
Tropical Storm Tracking
New forecast layout! Learn more

10-Day Weather Forecast

Advertisements
Track Severe Weather on mobile